Detall de PIREP

Printer-friendly versionPDF version

[2012/04/01 10:32:00]
Flight IATA:CT1004
Pilot Number:042
Company ICAO:CAT
Aircraft Type:F100/A
PAX:25
Aircraft Registration:PFJ
Departing Airport: LEIB
Destination Airport: DAAG
Alternate Airport:DAAE
Online: VATSIM
Route:SURIB G30 SADAF ZEM DCT
Flight Level:F240
No Slew and time accel
No pause
Crash detect
Detect pilot in Cockpit between each 30 and 45 minutes
10:32 Zero fuel Weight: 81826 Lbs, Fuel Weight: 22687 Lbs
10:32 VATSIM:LEIB 011000Z 22009KT 190V250 9999 FEW012 17/14 Q1009 NOSIG
10:32 VATSIM:DAAG 011000Z 34006KT 8000 FEW026 BKN090 17/14 Q1011
10:32 VOICE CATALONIAN/EASTER CHARTER
10:39 Parking Brakes off
10:44 Take-off
10:44 Take off Weight: 104081 Lbs
10:44 Wind: 230º @ 009 Knots Heading: 241º
10:44 POS N38º 52´ 19´´ E001º 22´ 16´´
10:44 Gear Up: 163 Knots
10:44 Flaps:2 at 163 Knots
10:44 Flaps:1 at 166 Knots
10:45 Flaps:0 at 214 Knots
10:55 TOC
10:55 Fuel Weight: 20560 Lb
10:59 Wind:199º@007 Knots Heading: 147º Ground Speed: 439 Knots Altitude 23891 ft
11:00 TOD
11:00 Fuel Weight: 20050 Lb
11:13 Flaps:1 at 184 Knots
11:13 Flaps:2 at 177 Knots
11:14 Wind:262º@007 Knots Heading: 136º Ground Speed: 188 Knots Altitude 6738 ft
11:19 Flaps:3 at 161 Knots
11:19 Gear Down: 159 Knots
11:19 Flaps:4 at 154 Knots
11:22 TouchDown:Rate -475 ft/min Speed: 113 Knots
11:22 VATSIM:DAAG 011030Z VRB02KT 8000 FEW026 BKN090 17/13 Q1011
11:22 Land
11:22 Wind:342º@004 Knots
11:22 Heading: 233º
11:22 Flight Duration: 00:38
11:22 Landing Weight: 100579 Lbs
11:22 POS N36º 42´ 19´´ E003º 14´ 20´´
11:32 Parking brakes on
11:32 Block to Block Duration: 00:53
11:32 Final Fuel: 18322 Lbls
11:32 Spent Fuel: 4365 Lbls
11:32 Flight Length: 174 NM
11:32 TOD Land Length: 82 NM

Exportar CSV

Powered by Drupal - Modified by Danger4k